Time;durP1;ratioP1;P1;durP2;ratioP2;P2;SDS_P1;SDS_P2;PMS_P1;PMS_P2;Temp;Humidity;BMP_temperature;BMP_pressure;BME280_temperature;BME280_humidity;BME280_pressure;Samples;Min_cycle;Max_cycle;Signal;HPM_P1;HPM_P2
2022/04/15 00:00:57;;;;;;;36.20;21.40;;;;;;;10.44;58.93;98519.62;105117;1282;22583;-77
2022/04/15 00:03:25;;;;;;;41.90;22.90;;;;;;;10.41;58.97;98521.04;104993;1282;137873;-77
2022/04/15 00:05:52;;;;;;;44.00;23.40;;;;;;;10.38;59.00;98520.30;105142;1282;23189;-77
2022/04/15 00:08:19;;;;;;;39.60;21.80;;;;;;;10.34;58.85;98519.38;104979;1282;137928;-78
2022/04/15 00:10:46;;;;;;;40.10;21.40;;;;;;;10.31;58.85;98518.16;105206;1282;23968;-76
2022/04/15 00:13:19;;;;;;;38.30;21.10;;;;;;;10.30;58.69;98518.42;105199;1282;24401;-76
2022/04/15 00:15:46;;;;;;;40.70;20.70;;;;;;;10.27;58.71;98515.40;105318;1282;137785;-76
2022/04/15 00:18:27;;;;;;;33.60;19.40;;;;;;;10.26;58.67;98513.90;105447;1282;24279;-76
2022/04/15 00:21:08;;;;;;;39.70;21.10;;;;;;;10.25;58.49;98514.59;104889;1285;137885;-77
2022/04/15 00:23:35;;;;;;;36.00;20.20;;;;;;;10.24;58.81;98510.55;105033;1283;24280;-77
2022/04/15 00:26:03;;;;;;;41.80;21.20;;;;;;;10.23;59.15;98510.04;105167;1284;22579;-77
2022/04/15 00:28:31;;;;;;;41.50;21.80;;;;;;;10.21;59.34;98505.58;105120;1284;137858;-77
2022/04/15 00:30:58;;;;;;;44.40;23.00;;;;;;;10.19;59.63;98506.95;105511;1284;23096;-77
2022/04/15 00:33:27;;;;;;;42.30;24.60;;;;;;;10.16;59.79;98505.31;105124;1282;137728;-77
2022/04/15 00:35:54;;;;;;;43.80;24.40;;;;;;;10.12;59.89;98503.93;105421;1282;22541;-77
2022/04/15 00:38:22;;;;;;;43.90;24.40;;;;;;;10.08;60.16;98502.88;105368;1282;137865;-77
2022/04/15 00:40:48;;;;;;;45.40;24.80;;;;;;;10.05;60.23;98503.14;105207;1282;26580;-77
2022/04/15 00:43:15;;;;;;;47.50;25.10;;;;;;;10.01;60.60;98501.59;105330;1282;22712;-77
2022/04/15 00:45:42;;;;;;;47.70;24.80;;;;;;;9.97;60.87;98501.94;105073;1282;138041;-77
2022/04/15 00:48:11;;;;;;;50.80;26.60;;;;;;;9.93;61.26;98505.75;105306;1282;24390;-77
2022/04/15 00:50:39;;;;;;;50.20;26.90;;;;;;;9.87;61.51;98503.20;104998;1282;137989;-77
2022/04/15 00:53:11;;;;;;;49.50;26.70;;;;;;;9.82;61.73;98499.39;105232;1282;24495;-77
2022/04/15 00:55:40;;;;;;;48.10;25.60;;;;;;;9.76;61.71;98503.56;105508;1282;30592;-77
2022/04/15 00:58:08;;;;;;;42.20;24.10;;;;;;;9.72;61.80;98506.90;105491;1282;138086;-75
2022/04/15 01:00:37;;;;;;;48.70;23.70;;;;;;;9.69;61.41;98503.30;105792;1282;23399;-78
2022/04/15 01:03:06;;;;;;;37.40;21.80;;;;;;;9.66;61.18;98506.66;105572;1282;137523;-76
2022/04/15 01:05:33;;;;;;;38.40;20.90;;;;;;;9.65;60.84;98500.91;105627;1282;24275;-76
2022/04/15 01:08:03;;;;;;;37.50;19.40;;;;;;;9.63;60.40;98501.33;105468;1282;24308;-77
2022/04/15 01:10:35;;;;;;;35.80;18.80;;;;;;;9.63;60.15;98497.99;105445;1282;138455;-76
2022/04/15 01:13:08;;;;;;;31.30;18.10;;;;;;;9.63;59.81;98494.02;105548;1282;22715;-78
2022/04/15 01:15:36;;;;;;;32.30;18.20;;;;;;;9.62;59.68;98489.23;105319;1282;137650;-77
2022/04/15 01:18:17;;;;;;;31.60;16.80;;;;;;;9.62;59.30;98492.65;105761;1284;22572;-77
2022/04/15 01:20:48;;;;;;;40.00;17.00;;;;;;;9.61;59.19;98489.69;105044;1282;137809;-77
2022/04/15 01:23:18;;;;;;;25.80;14.50;;;;;;;9.62;58.69;98487.26;105257;1282;22544;-77
2022/04/15 01:25:45;;;;;;;28.80;15.60;;;;;;;9.63;58.38;98490.59;105519;1284;22561;-77
2022/04/15 01:28:16;;;;;;;27.40;14.10;;;;;;;9.63;57.77;98490.71;105441;1282;137517;-77
2022/04/15 01:30:45;;;;;;;23.40;13.40;;;;;;;9.65;57.54;98492.71;105440;1282;23919;-77
2022/04/15 01:33:13;;;;;;;25.60;13.50;;;;;;;9.68;57.30;98491.46;105302;1282;137572;-78
2022/04/15 01:35:40;;;;;;;24.30;13.30;;;;;;;9.70;57.04;98493.29;105615;1282;25281;-77
2022/04/15 01:38:10;;;;;;;23.60;12.60;;;;;;;9.73;56.82;98490.64;105453;1282;23754;-78
2022/04/15 01:40:37;;;;;;;23.50;12.60;;;;;;;9.75;56.70;98493.36;105521;1282;137322;-78
2022/04/15 01:43:04;;;;;;;23.60;11.60;;;;;;;9.79;56.62;98497.40;105507;1282;22577;-78
2022/04/15 01:45:32;;;;;;;27.10;12.00;;;;;;;9.82;56.45;98495.70;105308;1282;137870;-78
2022/04/15 01:47:59;;;;;;;24.20;11.80;;;;;;;9.87;56.39;98495.03;105486;1283;22569;-78
2022/04/15 01:50:28;;;;;;;20.20;11.50;;;;;;;9.90;56.32;98492.16;105458;1282;138119;-78
2022/04/15 01:52:56;;;;;;;21.00;11.30;;;;;;;9.95;56.51;98495.36;105494;1282;25271;-78
2022/04/15 01:55:23;;;;;;;24.30;12.50;;;;;;;9.98;56.57;98494.30;105595;1282;22516;-77
2022/04/15 01:57:50;;;;;;;24.80;13.70;;;;;;;10.00;56.63;98492.80;105591;1282;137515;-77
2022/04/15 02:00:18;;;;;;;26.30;13.00;;;;;;;10.01;56.75;98490.10;105585;1282;24201;-77
2022/04/15 02:02:59;;;;;;;26.50;13.90;;;;;;;10.01;57.13;98486.56;105231;1284;137984;-78
2022/04/15 02:05:26;;;;;;;26.50;14.20;;;;;;;10.01;57.40;98489.52;105402;1283;22607;-77
2022/04/15 02:07:53;;;;;;;28.30;14.00;;;;;;;10.01;57.44;98493.15;105343;1285;25543;-77
2022/04/15 02:10:19;;;;;;;29.10;14.30;;;;;;;10.00;57.83;98501.92;105460;1284;138002;-78
2022/04/15 02:12:46;;;;;;;26.20;15.70;;;;;;;9.98;57.78;98514.59;105602;1284;24312;-76
2022/04/15 02:15:13;;;;;;;30.00;15.60;;;;;;;9.98;58.20;98523.27;105395;1284;137678;-77
2022/04/15 02:17:40;;;;;;;28.80;15.70;;;;;;;9.94;58.19;98524.93;105602;1282;22645;-77
2022/04/15 02:20:11;;;;;;;31.00;15.30;;;;;;;9.90;58.39;98514.14;105486;1282;25278;-77
2022/04/15 02:22:38;;;;;;;30.00;15.30;;;;;;;9.87;58.46;98510.77;105480;1284;137782;-77
2022/04/15 02:25:06;;;;;;;32.80;18.10;;;;;;;9.83;58.79;98509.11;105456;1284;22816;-77
2022/04/15 02:27:33;;;;;;;29.70;15.80;;;;;;;9.81;58.88;98508.02;105469;1282;137691;-78
2022/04/15 02:30:00;;;;;;;29.40;15.90;;;;;;;9.81;59.12;98507.90;105406;1282;25494;-79
2022/04/15 02:32:29;;;;;;;28.40;15.10;;;;;;;9.81;59.11;98502.46;105419;1282;138119;-77
2022/04/15 02:34:56;;;;;;;27.20;15.60;;;;;;;9.80;59.32;98500.05;105526;1282;24243;-77
2022/04/15 02:37:23;;;;;;;28.60;15.60;;;;;;;9.81;59.20;98503.00;105606;1282;24318;-77
2022/04/15 02:39:55;;;;;;;27.20;15.50;;;;;;;9.80;59.21;98501.13;105539;1282;138474;-77
2022/04/15 02:42:22;;;;;;;26.80;14.50;;;;;;;9.80;59.18;98498.59;105574;1282;25592;-77
2022/04/15 02:44:52;;;;;;;28.50;14.00;;;;;;;9.80;59.33;98499.38;105452;1282;138159;-77
2022/04/15 02:47:19;;;;;;;27.90;14.00;;;;;;;9.80;59.58;98498.14;105445;1282;23057;-77
2022/04/15 02:49:47;;;;;;;29.20;14.40;;;;;;;9.78;59.66;98496.73;105590;1282;22802;-77
2022/04/15 02:52:14;;;;;;;23.50;15.00;;;;;;;9.77;59.97;98500.40;105468;1283;137619;-77
2022/04/15 02:54:41;;;;;;;27.10;15.30;;;;;;;9.75;60.18;98504.95;105511;1282;23363;-78
2022/04/15 02:57:08;;;;;;;29.90;15.50;;;;;;;9.74;60.64;98518.63;105430;1282;137696;-78
2022/04/15 02:59:35;;;;;;;27.20;15.20;;;;;;;9.72;60.94;98523.64;105575;1282;25382;-78
2022/04/15 03:02:02;;;;;;;42.30;15.20;;;;;;;9.69;61.11;98523.09;105584;1282;22557;-79
2022/04/15 03:04:29;;;;;;;29.10;15.20;;;;;;;9.68;61.64;98515.73;105549;1282;138375;-77
2022/04/15 03:06:56;;;;;;;25.30;14.70;;;;;;;9.67;61.79;98511.34;105614;1282;22951;-77
2022/04/15 03:09:25;;;;;;;27.50;15.80;;;;;;;9.66;62.66;98509.54;105507;1282;137565;-77
2022/04/15 03:11:51;;;;;;;27.30;16.20;;;;;;;9.65;63.37;98516.10;105683;1282;24416;-77
2022/04/15 03:14:18;;;;;;;24.90;14.50;;;;;;;9.67;63.23;98524.40;105388;1282;138202;-78
2022/04/15 03:16:45;;;;;;;29.00;15.50;;;;;;;9.69;63.38;98527.07;105597;1282;23334;-78
2022/04/15 03:19:26;;;;;;;26.50;16.50;;;;;;;9.73;63.31;98530.30;105467;1282;25257;-76
2022/04/15 03:21:53;;;;;;;24.30;15.00;;;;;;;9.76;63.31;98530.25;105439;1282;137680;-77
2022/04/15 03:24:20;;;;;;;31.60;15.50;;;;;;;9.79;63.52;98530.66;105508;1282;22554;-77
2022/04/15 03:26:47;;;;;;;27.80;16.30;;;;;;;9.81;63.69;98524.39;105605;1282;137843;-77
2022/04/15 03:29:15;;;;;;;24.20;13.50;;;;;;;9.83;63.84;98524.43;105733;1282;22564;-77
2022/04/15 03:31:43;;;;;;;32.50;16.10;;;;;;;9.84;64.12;98524.41;105577;1282;22628;-77
2022/04/15 03:34:10;;;;;;;27.70;16.10;;;;;;;9.85;64.19;98520.92;105719;1282;137683;-77
2022/04/15 03:36:37;;;;;;;30.50;17.20;;;;;;;9.84;64.13;98522.66;105480;1282;25328;-77
2022/04/15 03:39:04;;;;;;;27.30;16.10;;;;;;;9.82;64.52;98521.64;105552;1282;137660;-77
2022/04/15 03:41:31;;;;;;;31.60;16.70;;;;;;;9.81;64.80;98527.15;105724;1282;22715;-77
2022/04/15 03:43:58;;;;;;;31.10;17.70;;;;;;;9.79;64.83;98527.23;105460;1282;24269;-77
2022/04/15 03:46:25;;;;;;;30.60;17.00;;;;;;;9.77;65.00;98527.99;105434;1282;137899;-77
2022/04/15 03:48:51;;;;;;;27.60;15.60;;;;;;;9.77;64.92;98530.66;105231;1284;33134;-77
2022/04/15 03:51:32;;;;;;;27.10;16.60;;;;;;;9.79;65.07;98538.15;104866;1285;138346;-80
2022/04/15 03:54:13;;;;;;;31.80;16.40;;;;;;;9.81;65.25;98544.89;105163;1284;22716;-79
2022/04/15 03:56:54;;;;;;;27.80;16.60;;;;;;;9.84;65.48;98544.85;104998;1284;138128;-79
2022/04/15 03:59:21;;;;;;;31.10;18.40;;;;;;;9.87;65.87;98550.51;105004;1282;22550;-78
2022/04/15 04:01:48;;;;;;;33.20;18.10;;;;;;;9.88;66.09;98549.91;105370;1282;22546;-77
2022/04/15 04:04:15;;;;;;;34.40;18.40;;;;;;;9.89;66.25;98546.37;105454;1282;137542;-77
2022/04/15 04:06:42;;;;;;;32.00;17.40;;;;;;;9.89;66.32;98540.66;105525;1282;25281;-77
2022/04/15 04:09:09;;;;;;;31.10;18.70;;;;;;;9.89;66.40;98543.17;105342;1282;137678;-77
2022/04/15 04:11:35;;;;;;;32.30;19.60;;;;;;;9.90;66.42;98546.40;105462;1282;22638;-77
2022/04/15 04:14:02;;;;;;;33.00;17.70;;;;;;;9.91;66.49;98554.24;105521;1282;22722;-77
2022/04/15 04:16:29;;;;;;;34.90;18.50;;;;;;;9.91;66.70;98560.27;105361;1282;137667;-77
2022/04/15 04:18:56;;;;;;;36.00;19.00;;;;;;;9.92;66.78;98567.60;105490;1282;22728;-77
2022/04/15 04:21:23;;;;;;;41.00;19.90;;;;;;;9.94;66.95;98572.27;105545;1282;137932;-77
2022/04/15 04:23:51;;;;;;;38.30;19.70;;;;;;;9.96;67.31;98579.30;105645;1282;24227;-79
2022/04/15 04:26:18;;;;;;;34.00;20.70;;;;;;;9.99;67.59;98579.67;105470;1282;137702;-77
2022/04/15 04:28:45;;;;;;;37.90;21.10;;;;;;;10.00;67.68;98576.33;105513;1282;23016;-78
2022/04/15 04:31:12;;;;;;;35.40;20.60;;;;;;;10.04;67.78;98578.27;105597;1282;22582;-77
2022/04/15 04:33:39;;;;;;;37.10;20.40;;;;;;;10.07;68.03;98588.46;105544;1282;137649;-77
2022/04/15 04:36:06;;;;;;;40.40;21.10;;;;;;;10.09;68.22;98592.58;105501;1282;22556;-77
2022/04/15 04:38:33;;;;;;;34.20;19.40;;;;;;;10.14;68.17;98595.67;105449;1282;138795;-76
2022/04/15 04:41:00;;;;;;;38.30;20.60;;;;;;;10.19;68.51;98589.30;105501;1282;22952;-77
2022/04/15 04:43:27;;;;;;;33.10;20.40;;;;;;;10.23;68.64;98586.67;105531;1282;22729;-77
2022/04/15 04:45:55;;;;;;;35.10;20.10;;;;;;;10.29;68.56;98591.69;105340;1283;137957;-77
2022/04/15 04:48:21;;;;;;;34.00;20.60;;;;;;;10.33;68.76;98600.30;105515;1282;24317;-79
2022/04/15 04:50:50;;;;;;;36.20;21.80;;;;;;;10.37;68.68;98600.55;105530;1282;137928;-78
2022/04/15 04:53:18;;;;;;;35.60;21.90;;;;;;;10.41;68.78;98600.48;105697;1282;25269;-77
2022/04/15 04:55:45;;;;;;;38.70;21.60;;;;;;;10.43;68.99;98602.20;105587;1282;25382;-79
2022/04/15 04:58:12;;;;;;;34.90;20.70;;;;;;;10.45;68.90;98601.69;105329;1282;138086;-77
2022/04/15 05:00:39;;;;;;;35.80;19.40;;;;;;;10.48;69.14;98602.61;105596;1282;25379;-77
2022/04/15 05:03:06;;;;;;;38.00;21.10;;;;;;;10.51;69.20;98602.30;105477;1282;138116;-77
2022/04/15 05:05:32;;;;;;;38.90;20.80;;;;;;;10.55;69.33;98600.58;105579;1282;22660;-77
2022/04/15 05:08:02;;;;;;;34.80;20.20;;;;;;;10.57;69.37;98598.73;105546;1282;22735;-77
2022/04/15 05:10:29;;;;;;;36.00;21.80;;;;;;;10.59;69.51;98602.04;105406;1282;137716;-77
2022/04/15 05:12:56;;;;;;;35.30;20.90;;;;;;;10.62;69.67;98600.30;105558;1282;25382;-77
2022/04/15 05:15:23;;;;;;;35.40;20.90;;;;;;;10.62;69.85;98597.54;105469;1282;137619;-78
2022/04/15 05:17:50;;;;;;;31.20;19.20;;;;;;;10.63;69.75;98599.83;105649;1282;25450;-78
2022/04/15 05:20:17;;;;;;;31.10;19.60;;;;;;;10.65;69.82;98601.17;105459;1282;138479;-78
2022/04/15 05:22:44;;;;;;;34.80;20.10;;;;;;;10.68;70.03;98599.47;105673;1282;23779;-78
2022/04/15 05:25:11;;;;;;;34.50;20.50;;;;;;;10.71;70.04;98595.95;105447;1282;23997;-78
2022/04/15 05:27:38;;;;;;;34.80;20.90;;;;;;;10.72;70.37;98606.33;105577;1282;137784;-77
2022/04/15 05:30:06;;;;;;;33.70;21.00;;;;;;;10.74;70.31;98619.55;105465;1282;23334;-76
2022/04/15 05:32:33;;;;;;;32.80;19.90;;;;;;;10.76;70.34;98633.41;105474;1282;138212;-76
2022/04/15 05:35:13;;;;;;;35.80;20.10;;;;;;;10.75;70.66;98631.77;105519;1282;22571;-77
2022/04/15 05:37:40;;;;;;;35.20;19.10;;;;;;;10.75;70.69;98639.40;105098;1285;22646;-77
2022/04/15 05:40:08;;;;;;;28.60;17.70;;;;;;;10.74;71.05;98643.47;105513;1282;141308;-77
2022/04/15 05:42:35;;;;;;;31.00;17.50;;;;;;;10.75;71.41;98650.13;105836;1282;24251;-77
2022/04/15 05:45:02;;;;;;;30.60;17.70;;;;;;;10.75;71.80;98650.52;105675;1282;137625;-76
2022/04/15 05:47:44;;;;;;;26.00;16.80;;;;;;;10.76;72.33;98647.25;105628;1282;22569;-76
2022/04/15 05:50:11;;;;;;;25.70;16.20;;;;;;;10.75;73.59;98651.27;105612;1282;22536;-78
2022/04/15 05:52:38;;;;;;;25.20;15.80;;;;;;;10.71;74.37;98647.55;105394;1282;138415;-77
2022/04/15 05:55:06;;;;;;;24.70;15.80;;;;;;;10.71;74.91;98643.02;105726;1282;22563;-75
2022/04/15 05:57:32;;;;;;;25.10;16.50;;;;;;;10.71;75.23;98640.02;105608;1282;138600;-75
2022/04/15 05:59:59;;;;;;;28.50;15.90;;;;;;;10.72;75.72;98636.05;105507;1282;23962;-75
2022/04/15 06:02:40;;;;;;;27.00;16.60;;;;;;;10.73;76.02;98635.86;105481;1282;138901;-77
2022/04/15 06:05:08;;;;;;;27.20;17.10;;;;;;;10.74;76.45;98643.96;105704;1282;22543;-76
2022/04/15 06:07:35;;;;;;;30.20;18.90;;;;;;;10.77;76.85;98641.22;106200;1282;22564;-76
2022/04/15 06:10:04;;;;;;;32.70;20.40;;;;;;;10.78;76.98;98636.14;105613;1282;139228;-76
2022/04/15 06:15:24;;;;;;;36.20;23.70;;;;;;;10.84;77.08;98640.82;105629;1282;138038;-76
2022/04/15 06:17:51;;;;;;;37.60;24.20;;;;;;;10.85;77.08;98643.45;105716;1282;22551;-76
2022/04/15 06:20:18;;;;;;;36.70;24.10;;;;;;;10.83;77.30;98642.38;105948;1282;137998;-76
2022/04/15 06:22:45;;;;;;;34.60;23.30;;;;;;;10.83;77.55;98641.73;105798;1282;22717;-75
2022/04/15 06:25:12;;;;;;;34.40;21.60;;;;;;;10.82;77.41;98649.12;105805;1282;25384;-75
2022/04/15 06:27:39;;;;;;;37.50;22.60;;;;;;;10.82;77.47;98656.36;105567;1282;138838;-76
2022/04/15 06:30:08;;;;;;;38.90;23.40;;;;;;;10.81;77.64;98653.14;105276;1282;22550;-75
2022/04/15 06:32:36;;;;;;;37.00;23.30;;;;;;;10.78;77.76;98652.10;105775;1282;139188;-75
2022/04/15 06:35:06;;;;;;;33.70;23.80;;;;;;;10.76;77.91;98657.84;105717;1282;23026;-75
2022/04/15 06:37:34;;;;;;;30.80;21.70;;;;;;;10.75;78.16;98656.23;105620;1285;23190;-76
2022/04/15 06:40:00;;;;;;;36.60;22.10;;;;;;;10.76;78.32;98663.73;105464;1282;138342;-76
2022/04/15 06:42:30;;;;;;;31.70;20.50;;;;;;;10.79;78.75;98666.61;105515;1284;22555;-76
2022/04/15 06:45:13;;;;;;;32.90;22.80;;;;;;;10.85;78.99;98671.40;105943;1282;138120;-76
2022/04/15 06:47:40;;;;;;;31.00;22.50;;;;;;;10.89;79.28;98673.52;105833;1282;25324;-76
2022/04/15 06:50:08;;;;;;;33.80;22.50;;;;;;;10.92;79.64;98676.17;105629;1282;22545;-76
2022/04/15 06:52:35;;;;;;;33.20;20.50;;;;;;;10.91;79.40;98677.59;105804;1282;138508;-76
2022/04/15 06:55:03;;;;;;;32.50;20.50;;;;;;;10.90;79.46;98677.73;105578;1282;25552;-76
2022/04/15 06:57:31;;;;;;;31.80;22.50;;;;;;;10.92;79.62;98679.22;105611;1282;138378;-76
2022/04/15 06:59:59;;;;;;;40.30;23.20;;;;;;;10.93;80.05;98684.15;105585;1282;22567;-76
2022/04/15 07:02:26;;;;;;;33.20;22.40;;;;;;;10.91;80.05;98685.64;105483;1283;137897;-76
2022/04/15 07:04:53;;;;;;;33.00;21.40;;;;;;;10.87;80.22;98685.18;105471;1283;25321;-76
2022/04/15 07:07:20;;;;;;;34.90;23.20;;;;;;;10.83;80.34;98690.34;105495;1282;26653;-76
2022/04/15 07:09:50;;;;;;;33.00;22.00;;;;;;;10.80;80.71;98683.48;105401;1282;138903;-75
2022/04/15 07:12:18;;;;;;;36.20;23.50;;;;;;;10.83;80.88;98678.90;105612;1282;25410;-76
2022/04/15 07:14:58;;;;;;;35.20;23.70;;;;;;;10.88;81.08;98678.02;105308;1282;138631;-75
2022/04/15 07:17:26;;;;;;;39.40;24.40;;;;;;;10.89;81.01;98681.57;105230;1283;23378;-75
2022/04/15 07:19:53;;;;;;;36.50;22.60;;;;;;;10.89;81.09;98678.63;105235;1282;24272;-76
2022/04/15 07:22:20;;;;;;;38.30;23.30;;;;;;;10.93;81.28;98678.98;105257;1282;138585;-75
2022/04/15 07:24:48;;;;;;;32.90;23.50;;;;;;;10.97;81.22;98673.88;105716;1282;24336;-74
2022/04/15 07:27:15;;;;;;;34.90;25.10;;;;;;;11.00;81.43;98676.83;105474;1282;137896;-76
2022/04/15 07:29:47;;;;;;;37.70;23.80;;;;;;;11.03;81.52;98680.55;105355;1283;233423;-76
2022/04/15 07:32:25;;;;;;;34.80;22.30;;;;;;;11.06;81.90;98686.64;105871;1282;24161;-74
2022/04/15 07:34:52;;;;;;;32.90;21.70;;;;;;;11.11;82.08;98689.46;105578;1282;138675;-74
2022/04/15 07:37:19;;;;;;;31.30;20.40;;;;;;;11.15;81.48;98690.00;105711;1282;24318;-74
2022/04/15 07:39:47;;;;;;;31.00;21.10;;;;;;;11.17;81.71;98688.23;105499;1282;138544;-73
2022/04/15 07:42:14;;;;;;;33.30;22.70;;;;;;;11.19;81.35;98689.86;105715;1282;23919;-75
2022/04/15 07:44:41;;;;;;;33.00;23.90;;;;;;;11.20;81.53;98697.44;105807;1282;137989;-76
2022/04/15 07:47:09;;;;;;;32.10;22.00;;;;;;;11.22;81.43;98699.73;106071;1282;23416;-76
2022/04/15 07:49:37;;;;;;;31.30;22.20;;;;;;;11.22;81.72;98705.34;106206;1282;22612;-74
2022/04/15 07:52:08;;;;;;;29.90;21.90;;;;;;;11.19;81.61;98696.34;105921;1283;138357;-76
2022/04/15 07:54:35;;;;;;;30.30;21.70;;;;;;;11.23;81.65;98693.30;105673;1283;22738;-75
2022/04/15 07:57:03;;;;;;;34.20;22.60;;;;;;;11.25;81.94;98698.19;105870;1282;139173;-75
2022/04/15 07:59:44;;;;;;;33.50;22.80;;;;;;;11.24;81.55;98705.48;105523;1284;23355;-75
2022/04/15 08:02:13;;;;;;;31.30;22.50;;;;;;;11.19;81.85;98702.93;106069;1282;22577;-76
2022/04/15 08:04:41;;;;;;;31.70;21.00;;;;;;;11.16;81.73;98699.42;105984;1282;138329;-74
2022/04/15 08:07:24;;;;;;;30.30;21.30;;;;;;;11.15;81.87;98701.15;105970;1282;22577;-76
2022/04/15 08:09:51;;;;;;;33.30;23.30;;;;;;;11.14;82.03;98701.96;106135;1282;138172;-75
2022/04/15 08:12:18;;;;;;;33.60;22.50;;;;;;;11.16;82.10;98708.60;105703;1282;24262;-75
2022/04/15 08:15:00;;;;;;;36.20;24.30;;;;;;;11.15;82.13;98706.28;106013;1282;140555;-76
2022/04/15 08:17:29;;;;;;;31.00;21.70;;;;;;;11.14;82.51;98709.38;106006;1282;23926;-76
2022/04/15 08:19:56;;;;;;;32.30;22.90;;;;;;;11.14;82.37;98709.38;106171;1282;22680;-76
2022/04/15 08:22:23;;;;;;;32.80;22.60;;;;;;;11.15;82.55;98709.79;105533;1282;138588;-76
2022/04/15 08:24:50;;;;;;;36.00;24.60;;;;;;;11.16;82.61;98708.23;105616;1284;22658;-76
2022/04/15 08:27:17;;;;;;;36.50;25.30;;;;;;;11.16;82.67;98708.44;105792;1284;138082;-76
2022/04/15 08:29:44;;;;;;;35.50;23.20;;;;;;;11.17;83.11;98712.23;105516;1284;22547;-76
2022/04/15 08:32:11;;;;;;;36.10;23.80;;;;;;;11.21;83.15;98711.10;105733;1284;22585;-76
2022/04/15 08:34:39;;;;;;;34.50;22.40;;;;;;;11.25;83.00;98710.95;105521;1282;139388;-76
2022/04/15 08:37:06;;;;;;;34.60;23.60;;;;;;;11.26;82.82;98709.55;105612;1282;22544;-76
2022/04/15 08:39:33;;;;;;;39.10;25.40;;;;;;;11.27;82.98;98710.81;105543;1282;137650;-76
2022/04/15 08:42:00;;;;;;;34.20;23.30;;;;;;;11.25;82.80;98715.20;105765;1282;25264;-76
2022/04/15 08:44:30;;;;;;;32.20;22.50;;;;;;;11.25;83.15;98713.56;105796;1282;22581;-76
2022/04/15 08:46:58;;;;;;;32.10;22.80;;;;;;;11.28;83.06;98719.23;105887;1282;138793;-76
2022/04/15 08:49:26;;;;;;;34.20;24.30;;;;;;;11.27;83.42;98718.67;105621;1282;24329;-76
2022/04/15 08:51:54;;;;;;;33.30;24.70;;;;;;;11.28;83.29;98720.82;105439;1282;137779;-76
2022/04/15 08:54:35;;;;;;;33.70;23.80;;;;;;;11.27;83.57;98724.52;105461;1284;26856;-76
2022/04/15 08:57:03;;;;;;;33.90;23.70;;;;;;;11.26;83.70;98722.59;105617;1282;139069;-76
2022/04/15 08:59:30;;;;;;;33.00;23.40;;;;;;;11.26;83.78;98720.40;105801;1282;23192;-76
2022/04/15 09:02:14;;;;;;;31.90;21.70;;;;;;;11.25;83.79;98719.30;105810;1282;22573;-75
2022/04/15 09:04:41;;;;;;;36.70;24.80;;;;;;;11.27;83.99;98718.58;105814;1282;138401;-75
2022/04/15 09:07:08;;;;;;;35.50;26.20;;;;;;;11.29;84.09;98723.52;105796;1282;25358;-75
2022/04/15 09:09:35;;;;;;;31.30;23.20;;;;;;;11.32;84.12;98719.25;105709;1282;138120;-74
2022/04/15 09:12:03;;;;;;;32.50;23.00;;;;;;;11.33;84.20;98722.02;105749;1282;22552;-74
2022/04/15 09:14:30;;;;;;;31.40;21.30;;;;;;;11.32;84.43;98719.54;105570;1282;22706;-74
2022/04/15 09:17:01;;;;;;;35.00;23.40;;;;;;;11.33;84.79;98716.63;105700;1282;138196;-74
2022/04/15 09:19:28;;;;;;;31.30;22.00;;;;;;;11.35;84.64;98711.34;105828;1282;23916;-74
2022/04/15 09:21:58;;;;;;;38.40;25.40;;;;;;;11.36;84.78;98713.00;105557;1282;138900;-76
2022/04/15 09:24:30;;;;;;;;;;;;;;;11.36;84.58;98712.23;105636;1282;22606;-74
2022/04/15 09:27:05;;;;;;;36.30;25.10;;;;;;;11.38;85.14;98710.06;105650;1282;124039;-74
2022/04/15 09:29:34;;;;;;;34.30;23.70;;;;;;;11.44;85.13;98704.98;105900;1282;22562;-75
2022/04/15 09:32:09;;;;;;;;;;;;;;;11.50;85.29;98703.20;105648;1282;22555;-75
2022/04/15 09:34:53;;;;;;;;;;;;;;;11.54;85.41;98698.95;105645;1282;124718;-75
2022/04/15 09:37:23;;;;;;;33.90;22.80;;;;;;;11.61;85.33;98699.60;105812;1282;22595;-75
2022/04/15 09:40:12;;;;;;;35.50;23.60;;;;;;;11.70;85.54;98695.18;105626;1282;138023;-75
2022/04/15 09:42:50;;;;;;;37.20;25.40;;;;;;;11.79;85.59;98697.46;105642;1283;22545;-75
2022/04/15 09:45:27;;;;;;;37.40;25.60;;;;;;;11.83;85.50;98695.30;105776;1283;137825;-75
2022/04/15 09:47:59;;;;;;;32.00;23.80;;;;;;;11.87;85.49;98692.30;105752;1282;25336;-75
2022/04/15 09:50:37;;;;;;;31.30;22.40;;;;;;;11.90;84.90;98692.03;105736;1282;23333;-75
2022/04/15 09:53:20;;;;;;;32.90;23.00;;;;;;;11.90;84.65;98694.72;105689;1283;22547;-75
2022/04/15 09:55:50;;;;;;;31.90;23.40;;;;;;;11.93;84.92;98688.73;106003;1282;23428;-75
2022/04/15 09:58:21;;;;;;;32.40;21.80;;;;;;;11.93;84.73;98690.04;105601;1282;138028;-74
2022/04/15 10:01:04;;;;;;;31.10;22.40;;;;;;;11.90;84.72;98692.15;105336;1285;23219;-75
2022/04/15 10:03:35;;;;;;;30.80;22.10;;;;;;;11.87;84.68;98688.80;106348;1282;138288;-75
2022/04/15 10:06:03;;;;;;;26.90;19.70;;;;;;;11.83;84.49;98693.44;105809;1282;23663;-74
2022/04/15 10:08:30;;;;;;;29.80;20.00;;;;;;;11.81;85.02;98697.72;106102;1282;22711;-74
2022/04/15 10:10:57;;;;;;;29.10;20.70;;;;;;;11.81;84.78;98700.08;106059;1283;138293;-74
2022/04/15 10:13:28;;;;;;;29.00;20.20;;;;;;;11.80;84.97;98702.17;106505;1282;24309;-74
2022/04/15 10:15:58;;;;;;;27.40;20.30;;;;;;;11.79;84.96;98700.46;106143;1282;138558;-74
2022/04/15 10:18:26;;;;;;;;;;;;;;;11.83;84.99;98699.49;106071;1283;22532;-73
2022/04/15 10:20:53;;;;;;;23.00;16.20;;;;;;;11.86;85.16;98698.40;106107;1282;23965;-74
2022/04/15 10:23:22;;;;;;;24.90;17.00;;;;;;;11.93;85.25;98696.63;106007;1282;139155;-73
2022/04/15 10:26:06;;;;;;;21.80;17.20;;;;;;;12.02;85.15;98693.29;106104;1282;22448;-73
2022/04/15 10:28:45;;;;;;;24.90;18.90;;;;;;;12.13;85.28;98691.01;105940;1285;137760;-74
2022/04/15 10:31:17;;;;;;;22.90;16.20;;;;;;;12.28;85.19;98689.92;105894;1283;22639;-74
2022/04/15 10:33:49;;;;;;;22.40;16.20;;;;;;;12.40;85.20;98689.84;105536;1284;139263;-74
2022/04/15 10:36:20;;;;;;;21.70;16.20;;;;;;;12.53;84.84;98686.34;105915;1283;25650;-74
2022/04/15 10:39:03;;;;;;;23.00;14.50;;;;;;;12.65;84.50;98683.88;105554;1284;138228;-74
2022/04/15 10:41:53;;;;;;;19.80;15.10;;;;;;;12.75;84.12;98683.79;105910;1283;25329;-74
2022/04/15 10:44:39;;;;;;;18.50;13.80;;;;;;;12.87;83.93;98679.35;105828;1284;25593;-74
2022/04/15 10:47:20;;;;;;;16.10;13.10;;;;;;;13.02;83.77;98680.95;105903;1283;138482;-74
2022/04/15 10:50:05;;;;;;;14.90;11.70;;;;;;;13.20;83.87;98681.66;105632;1284;22553;-74
2022/04/15 10:52:36;;;;;;;15.20;11.50;;;;;;;13.36;83.43;98682.57;105275;1286;138198;-74
2022/04/15 10:55:08;;;;;;;14.10;11.00;;;;;;;13.48;82.86;98684.16;105730;1284;22647;-74
2022/04/15 10:57:41;;;;;;;13.90;10.60;;;;;;;13.61;82.70;98682.44;105817;1283;138044;-74
2022/04/15 11:02:55;;;;;;;13.30;9.80;;;;;;;13.81;81.65;98670.13;105940;1282;22566;-75
2022/04/15 11:05:45;;;;;;;13.70;9.70;;;;;;;13.95;81.50;98670.62;105892;1282;137712;-75
2022/04/15 11:08:15;;;;;;;14.10;9.90;;;;;;;14.10;81.32;98671.33;105699;1284;30880;-75
2022/04/15 11:10:58;;;;;;;10.00;9.00;;;;;;;14.18;80.88;98669.02;105603;1284;137660;-75
2022/04/15 11:13:34;;;;;;;11.80;8.50;;;;;;;14.23;80.02;98663.54;105720;1284;25286;-75
2022/04/15 11:16:16;;;;;;;8.70;7.60;;;;;;;14.38;79.25;98658.70;105752;1284;138335;-75
2022/04/15 11:18:53;;;;;;;10.20;8.40;;;;;;;14.52;78.55;98655.81;105785;1284;24323;-75
2022/04/15 11:21:40;;;;;;;12.40;9.70;;;;;;;14.62;78.51;98650.20;105405;1283;137630;-75
2022/04/15 11:24:11;;;;;;;11.50;8.70;;;;;;;14.77;78.40;98656.39;105629;1284;25357;-75
2022/04/15 11:26:39;;;;;;;;;;;;;;;14.83;76.83;98659.83;105877;1283;22566;-75